Latest Weather Observations for Sheoaks

IDV60801

Issued at 4:35 pm EST Thursday 17 April 2014 (issued every 30 minutes, with the page automatically refreshed every 10 minutes)

About weather observations | Map of weather stations | Latest weather observations for VIC | Other Formats
Station Details ID: 087168 Name: SHEOAKS Lat: -37.91 Lon: 144.13 Height: 236.7 m
Data from the previous 72 hours. | See also: Recent months at Sheoaks
Date/Time
EST
Temp
°C
App
Temp
°C
Dew
Point
Rel
Hum
%
Delta-T
°C
Wind Press
QNH
hPa
Press
MSL
hPa
Rain
since 9 am
mm
Dir
 
Spd
km/h
Gust
km/h
Spd
kts
Gust
kts
17/04:30pm 22.3 19.5 6.9 37 8.0 NNW 11 19 6 10 1018.0 - 0.0
17/04:00pm 22.3 19.0 6.5 36 8.1 NNW 13 19 7 10 1018.2 1018.0 0.0
17/03:30pm 22.4 19.6 7.0 37 8.0 NNW 11 17 6 9 1018.4 - 0.0
17/03:00pm 22.2 19.1 7.2 38 7.8 NNW 13 22 7 12 1018.5 1018.3 0.0
17/02:30pm 22.7 20.0 7.3 37 8.1 NW 11 19 6 10 1018.7 - 0.0
17/02:00pm 22.3 19.5 6.9 37 8.0 WNW 11 19 6 10 1018.9 1018.8 0.0
17/01:30pm 22.5 19.9 7.9 39 7.7 WNW 11 26 6 14 1019.2 - 0.0
17/01:00pm 21.4 19.2 8.0 42 7.0 WSW 9 15 5 8 1019.5 1019.4 0.0
17/12:30pm 21.8 19.5 7.6 40 7.4 NNW 9 19 5 10 1019.9 - 0.0
17/12:00pm 20.9 18.5 6.8 40 7.2 WNW 9 15 5 8 1020.3 1020.2 0.0
17/11:30am 20.4 17.9 6.7 41 7.0 NW 9 17 5 9 1020.7 - 0.0
17/11:00am 19.8 18.9 10.5 55 5.1 SE 6 11 3 6 1020.8 1020.6 0.0
17/10:30am 18.5 17.4 10.1 58 4.5 S 6 9 3 5 1020.9 - 0.0
17/10:00am 17.3 17.0 10.2 63 3.8 ESE 2 4 1 2 1021.0 1020.8 0.0
17/09:30am 16.4 16.2 10.5 68 3.2 NNE 2 4 1 2 1021.1 - 0.0
17/09:00am 13.9 13.0 9.1 73 2.5 N 4 6 2 3 1021.2 1021.0 0.0
17/08:30am 11.4 9.8 8.1 80 1.6 N 6 7 3 4 1021.2 - 0.0
17/08:00am 9.5 7.7 7.8 89 0.8 N 7 9 4 5 1021.0 1020.8 0.0
17/07:30am 7.5 5.4 6.8 95 0.3 N 7 9 4 5 1020.7 - 0.0
17/07:00am 7.1 4.9 6.4 95 0.3 N 7 7 4 4 1020.2 1020.1 0.0
17/06:30am 7.2 5.3 6.6 96 0.3 N 6 7 3 4 1020.2 - 0.0
17/06:00am 7.2 4.7 6.5 95 0.3 N 9 9 5 5 1020.1 1020.0 0.0
17/05:30am 7.8 5.4 6.9 94 0.4 N 9 11 5 6 1020.0 - 0.0
17/05:00am 8.2 5.9 7.3 94 0.4 N 9 9 5 5 1019.9 1019.8 0.0
17/04:30am 8.3 6.0 7.5 95 0.4 N 9 11 5 6 1019.9 - 0.0
17/04:00am 8.1 5.8 7.3 95 0.4 NNW 9 11 5 6 1019.7 1019.6 0.0
17/03:30am 8.4 5.8 7.6 95 0.4 N 11 13 6 7 1019.6 - 0.0
17/03:00am 8.5 5.9 7.7 95 0.4 N 11 11 6 6 1019.6 1019.5 0.0
17/02:30am 8.6 6.4 7.8 95 0.4 N 9 11 5 6 1019.7 - 0.0
17/02:00am 8.8 6.6 7.9 94 0.4 NNW 9 9 5 5 1019.7 1019.6 0.0
17/01:30am 8.9 6.7 7.8 93 0.5 N 9 11 5 6 1019.8 - 0.0
17/01:00am 9.1 6.9 7.9 92 0.6 N 9 9 5 5 1019.7 1019.6 0.0
17/12:30am 9.6 6.7 8.0 90 0.8 N 13 15 7 8 1019.7 - 0.0
17/12:00am 10.0 7.5 8.3 89 0.8 N 11 15 6 8 1019.9 1019.8 0.0
 
Date/Time
EST
Temp
°C
App
Temp
°C
Dew
Point
Rel
Hum
%
Delta-T
°C
Wind Press
QNH
hPa
Press
MSL
hPa
Rain
since 9 am
mm
Dir
 
Spd
km/h
Gust
km/h
Spd
kts
Gust
kts
16/11:30pm 9.7 7.7 8.5 92 0.6 N 9 11 5 6 1020.1 - 0.0
16/11:00pm 8.7 6.9 7.8 94 0.4 NNW 7 9 4 5 1020.5 1020.3 0.0
16/10:30pm 9.6 7.9 8.2 91 0.7 N 7 9 4 5 1020.0 - 0.0
16/10:00pm 9.9 8.2 8.3 90 0.8 N 7 9 4 5 1019.9 1019.8 0.0
16/09:30pm 10.5 8.9 8.8 89 0.8 N 7 7 4 4 1020.0 - 0.0
16/09:00pm 10.9 9.3 8.8 87 1.0 N 7 9 4 5 1020.0 1019.9 0.0
16/08:30pm 11.6 10.1 9.2 85 1.2 N 7 7 4 4 1019.9 - 0.0
16/08:00pm 12.4 11.2 9.6 83 1.4 N 6 7 3 4 1020.0 1019.9 0.0
16/07:30pm 12.9 11.7 9.7 81 1.7 NNW 6 7 3 4 1020.1 - 0.0
16/07:00pm 13.9 13.5 9.7 76 2.2 NNW 2 4 1 2 1019.9 1019.8 0.0
16/06:30pm 14.8 14.4 9.6 71 2.7 NNW 2 4 1 2 1019.6 - 0.0
16/06:00pm 15.3 14.9 9.7 69 2.9 S 2 4 1 2 1019.5 1019.4 0.0
16/05:30pm 16.4 14.6 9.6 64 3.6 SSW 9 15 5 8 1019.3 - 0.0
16/05:00pm 17.3 14.7 9.2 59 4.3 SW 13 20 7 11 1019.1 1019.0 0.0
16/04:30pm 18.3 16.7 8.8 54 5.0 W 7 15 4 8 1018.9 - 0.0
16/04:00pm 18.6 15.8 8.6 52 5.2 W 13 17 7 9 1018.9 1018.8 0.0
16/03:30pm 18.3 15.6 8.8 54 5.0 W 13 20 7 11 1018.9 - 0.0
16/03:00pm 18.6 16.6 8.8 53 5.1 NW 9 17 5 9 1019.0 1018.9 0.0
16/02:30pm 18.9 16.4 8.3 50 5.5 NW 11 19 6 10 1018.9 - 0.0
16/02:00pm 19.1 17.8 9.9 55 4.9 SSW 7 13 4 7 1018.8 1018.6 0.0
16/01:30pm 18.1 17.7 11.2 64 3.8 S 4 9 2 5 1019.0 - 0.0
16/01:00pm 17.4 16.5 11.4 68 3.3 S 7 13 4 7 1019.1 1019.0 0.0
16/12:30pm 17.5 16.2 11.3 67 3.4 SW 9 15 5 8 1019.6 - 0.0
16/12:00pm 17.4 16.7 11.9 70 3.0 SW 7 17 4 9 1020.0 1019.9 0.0
16/11:30am 17.0 16.1 11.3 69 3.1 S 7 11 4 6 1020.1 - 0.0
16/11:00am 16.6 15.9 11.3 71 2.9 SSW 6 9 3 5 1020.2 1020.1 0.0
16/10:30am 16.4 16.0 11.1 71 2.9 SE 4 7 2 4 1020.3 - 0.0
16/10:00am 15.2 14.8 11.2 77 2.2 ESE 4 7 2 4 1020.7 1020.5 0.0
16/09:30am 13.3 13.7 11.4 88 1.0 CALM 0 2 0 1 1021.0 - 0.0
16/09:00am 12.1 11.7 11.2 94 0.5 N 4 7 2 4 1021.3 1021.1 0.0
16/08:30am 11.2 10.7 10.9 98 0.2 N 4 6 2 3 1021.2 - 0.0
16/08:00am 10.9 10.1 10.9 100 0.0 N 6 9 3 5 1021.1 1020.9 0.0
16/07:30am 10.3 9.7 10.3 100 0.0 NNW 4 4 2 2 1020.9 - 0.0
16/07:00am 10.3 9.7 10.3 100 0.0 NW 4 4 2 2 1020.6 1020.4 0.0
16/06:30am 10.5 9.9 10.5 100 0.0 NW 4 6 2 3 1020.7 - 0.0
16/06:00am 10.5 10.3 10.5 100 0.0 NW 2 4 1 2 1020.7 1020.5 0.0
16/05:30am 10.7 10.9 10.7 100 0.0 CALM 0 0 0 0 1020.7 - 0.0
16/05:00am 10.8 10.3 10.8 100 0.0 WNW 4 6 2 3 1020.9 1020.7 0.0
16/04:30am 10.6 10.4 10.6 100 0.0 NW 2 2 1 1 1021.0 - 0.0
16/04:00am 10.1 9.0 10.1 100 0.0 NNW 6 6 3 3 1020.9 1020.7 0.0
16/03:30am 9.8 8.5 9.8 100 0.0 NNW 7 7 4 4 1020.7 - 0.0
16/03:00am 9.2 7.7 9.2 100 0.0 NNW 7 7 4 4 1020.7 1020.5 0.0
16/02:30am 8.7 7.1 8.7 100 0.0 N 7 9 4 5 1020.8 - 0.0
16/02:00am 8.9 7.5 8.8 99 0.0 NNW 6 7 3 4 1021.3 1021.1 0.0
16/01:30am 9.4 8.1 9.3 99 0.1 NNW 6 7 3 4 1021.7 - 0.0
16/01:00am 10.1 10.0 9.6 97 0.3 CALM 0 2 0 1 1022.0 1021.8 0.0
16/12:30am 10.9 11.0 10.1 95 0.4 CALM 0 4 0 2 1022.2 - 0.0
16/12:00am 11.6 11.8 10.7 94 0.5 CALM 0 4 0 2 1022.4 1022.2 0.0
 
Date/Time
EST
Temp
°C
App
Temp
°C
Dew
Point
Rel
Hum
%
Delta-T
°C
Wind Press
QNH
hPa
Press
MSL
hPa
Rain
since 9 am
mm
Dir
 
Spd
km/h
Gust
km/h
Spd
kts
Gust
kts
15/11:30pm 12.4 12.4 11.1 92 0.7 N 2 4 1 2 1022.7 - 0.0
15/11:00pm 12.2 12.1 10.9 92 0.7 N 2 6 1 3 1022.9 1022.8 0.0
15/10:30pm 12.3 12.2 10.9 91 0.7 WNW 2 4 1 2 1023.1 - 0.0
15/10:00pm 12.5 12.7 10.7 89 0.9 CALM 0 4 0 2 1023.3 1023.2 0.0
15/09:30pm 12.8 12.3 10.7 87 1.1 SSW 4 6 2 3 1023.6 - 0.0
15/09:00pm 13.0 12.5 10.9 87 1.1 SSW 4 6 2 3 1023.7 1023.6 0.0
15/08:30pm 13.1 12.6 10.6 85 1.3 S 4 6 2 3 1023.6 - 0.0
15/08:00pm 13.3 12.7 10.5 83 1.5 S 4 7 2 4 1023.5 1023.4 0.0
15/07:30pm 13.2 12.2 10.4 83 1.5 SSE 6 9 3 5 1023.5 - 0.0
15/07:00pm 13.4 12.8 10.4 82 1.6 S 4 7 2 4 1023.4 1023.3 0.0
15/06:30pm 13.4 12.4 10.2 81 1.7 SSE 6 9 3 5 1023.1 - 0.0
15/06:00pm 13.9 12.7 10.3 79 1.9 SSE 7 13 4 7 1022.9 1022.8 0.0
15/05:30pm 14.6 12.9 10.0 74 2.4 SSE 9 17 5 9 1022.6 - 0.0
15/05:00pm 15.2 12.9 10.4 73 2.5 SSE 13 20 7 11 1022.4 1022.2 0.0
15/04:30pm 15.9 12.9 10.7 71 2.8 SSE 17 24 9 13 1022.3 - 0.0
15/04:00pm 16.1 13.8 10.6 70 2.9 SSE 13 24 7 13 1022.4 1022.2 0.0
15/03:30pm 17.7 15.3 11.3 66 3.5 SSE 15 22 8 12 1022.5 - 0.0
15/03:00pm 17.3 14.5 11.3 68 3.3 SE 17 26 9 14 1022.5 1022.4 0.0
15/02:30pm 16.6 14.2 11.3 71 2.9 SSE 15 24 8 13 1022.6 - 0.0
15/02:00pm 15.9 13.5 11.5 75 2.4 SSE 15 22 8 12 1022.7 1022.6 0.0
15/01:30pm 15.5 13.0 11.1 75 2.4 SSE 15 24 8 13 1022.8 - 0.0
15/01:00pm 15.9 14.0 11.9 77 2.2 S 13 22 7 12 1023.0 1022.9 0.0
15/12:30pm 15.9 14.1 12.1 78 2.1 SSE 13 20 7 11 1023.4 - 0.0
15/12:00pm 15.7 14.0 11.3 75 2.4 ESE 11 17 6 9 1023.8 1023.7 0.0
15/11:30am 15.6 12.4 11.2 75 2.4 ESE 19 26 10 14 1023.9 - 0.0
15/11:00am 16.3 14.7 11.7 74 2.5 SE 11 17 6 9 1024.0 1023.9 0.0
15/10:30am 15.3 14.3 12.4 83 1.6 SE 9 15 5 8 1024.2 - 0.0
15/10:00am 14.3 14.9 14.3 100 0.0 SE 4 7 2 4 1024.4 1024.3 0.0
15/09:30am 13.2 13.8 13.2 100 0.0 S 2 6 1 3 1024.6 - 0.0
15/09:00am 12.8 13.3 12.8 100 0.0 SE 2 4 1 2 1024.6 1024.5 0.2
15/08:30am 11.9 12.1 11.9 100 0.0 W 2 6 1 3 1024.6 - 0.2
15/08:00am 10.9 10.4 10.9 100 0.0 NNW 4 4 2 2 1024.4 1024.3 0.2
15/07:30am 10.4 10.6 10.4 100 0.0 CALM 0 0 0 0 1024.2 - 0.2
15/07:00am 9.9 9.5 9.9 100 0.0 N 2 4 1 2 1023.9 1023.8 0.2
15/06:30am 10.3 10.1 10.3 100 0.0 WSW 2 4 1 2 1023.6 - 0.2
15/06:00am 10.4 10.1 10.2 99 0.1 SSW 2 4 1 2 1023.5 1023.4 0.2
15/05:30am 10.4 10.5 10.2 99 0.1 CALM 0 0 0 0 1023.3 - 0.2
15/05:00am 11.1 11.4 10.9 99 0.1 CALM 0 0 0 0 1023.3 1023.2 0.2
15/04:30am 10.9 10.8 10.7 99 0.1 N 2 4 1 2 1023.2 - 0.2
15/04:00am 11.5 12.0 11.5 100 0.0 CALM 0 0 0 0 1023.1 1023.0 0.2
15/03:30am 10.9 11.1 10.7 99 0.1 CALM 0 0 0 0 1023.2 - 0.2
15/03:00am 10.7 10.8 10.2 97 0.3 CALM 0 0 0 0 1023.3 1023.2 0.2
15/02:30am 11.3 11.2 10.8 97 0.3 S 2 4 1 2 1023.6 - 0.2
15/02:00am 11.8 11.1 11.5 98 0.2 SW 6 7 3 4 1023.7 1023.6 0.2
15/01:30am 12.1 12.7 11.9 99 0.1 CALM 0 4 0 2 1023.8 - 0.2
15/01:00am 11.8 12.4 11.8 100 0.0 CALM 0 0 0 0 1023.8 1023.7 0.2
15/12:30am 10.3 10.0 10.1 99 0.1 W 2 4 1 2 1023.8 - 0.2
15/12:00am 9.9 9.9 9.8 99 0.1 CALM 0 0 0 0 1023.8 1023.7 0.2
 
Date/Time
EST
Temp
°C
App
Temp
°C
Dew
Point
Rel
Hum
%
Delta-T
°C
Wind Press
QNH
hPa
Press
MSL
hPa
Rain
since 9 am
mm
Dir
 
Spd
km/h
Gust
km/h
Spd
kts
Gust
kts
14/11:30pm 9.1 8.8 8.8 98 0.1 CALM 0 0 0 0 1023.9 - 0.2
14/11:00pm 9.0 8.7 8.7 98 0.1 CALM 0 0 0 0 1024.1 1024.0 0.2
14/10:30pm 8.8 8.4 8.4 97 0.2 CALM 0 0 0 0 1024.3 - 0.2
14/10:00pm 8.4 7.8 7.5 94 0.4 CALM 0 4 0 2 1024.4 1024.3 0.2
14/09:30pm 11.7 10.9 11.1 96 0.3 SE 6 9 3 5 1024.3 - 0.2
14/09:00pm 9.6 9.2 8.2 91 0.7 CALM 0 0 0 0 1024.3 1024.2 0.2
14/08:30pm 11.8 11.2 10.5 92 0.7 S 4 6 2 3 1024.2 - 0.2
14/08:00pm 12.2 11.6 10.4 89 0.9 S 4 6 2 3 1024.2 1024.1 0.2
14/07:30pm 12.4 11.5 9.2 81 1.6 SSE 4 6 2 3 1024.1 - 0.2
14/07:00pm 12.9 11.4 8.6 75 2.2 SSE 6 9 3 5 1023.9 1023.8 0.2
14/06:30pm 13.5 11.7 7.9 69 2.8 SSE 7 11 4 6 1023.5 - 0.2
14/06:00pm 14.4 12.0 7.2 62 3.6 SSE 9 15 5 8 1023.2 1023.1 0.2
14/05:30pm 15.5 12.5 6.2 54 4.6 SSE 11 17 6 9 1023.0 - 0.2
14/05:00pm 16.3 13.0 6.2 51 5.0 SSE 13 20 7 11 1022.8 1022.7 0.2

Other Formats:

Comma delimited format used in spreadsheet applications
http://www.bom.gov.au/fwo/IDV60801/IDV60801.94863.axf

JavaScript Object Notation format (JSON) in row-major order
http://www.bom.gov.au/fwo/IDV60801/IDV60801.94863.json